KRME

Griffiss International Airport

Rome, New York, USA
METAR KRME 100553Z AUTO 00000KT 10SM OVC029 M03/M06 A3015 RMK AO2 SLP216 T10331061 11033 21083 58012 $
Observed Flight Rules
Dec-10 @ 05:53 UTC (34 minutes ago) Marginal Visual Flight Rules
Visibility Clouds
10 miles
  • Overcast at 2,900' AGL
Temperatures Readings
Current -3°C / 27°F
Dewpoint -6°C / 21°F
Humidity 80%
Altimeter 30.15" Hg
Pressure 1021.6 hPa
Elevation 154
METAR KRME 100553Z AUTO 00000KT 10SM OVC029 M03/M06 A3015 RMK AO2 SLP216 T10331061 11033 21083 58012 $
Observed Flight Rules
Dec-10 @ 05:53 UTC
(34 minutes ago)
MVFR
Clouds
  • Overcast at 2,900' AGL
Temperature Dewpoint
-3°C / 27°F -6°C / 21°F
Humidity Altimeter Pressure
80% 30.15" Hg 1021.6 hPa